createdAt,value
2023-02-18T00:01:31.722Z,20.50
2023-02-18T00:04:01.143Z,19.55
2023-02-18T00:06:30.954Z,25.55
2023-02-18T00:09:02.302Z,22.58
2023-02-18T00:11:33.121Z,24.55
2023-02-18T00:14:03.256Z,20.15
2023-02-18T00:16:33.416Z,17.88
2023-02-18T00:19:04.045Z,18.23
2023-02-18T00:21:33.602Z,19.77
2023-02-18T00:24:01.955Z,19.88
2023-02-18T00:26:30.335Z,24.17
2023-02-18T00:28:58.650Z,22.45
2023-02-18T00:31:30.212Z,20.25
2023-02-18T00:34:02.215Z,23.85
2023-02-18T00:36:31.038Z,24.73
2023-02-18T00:39:03.623Z,20.67
2023-02-18T00:41:32.826Z,19.05
2023-02-18T00:44:01.171Z,19.05
2023-02-18T00:46:30.323Z,20.05
2023-02-18T00:48:58.668Z,20.50
2023-02-18T00:51:28.680Z,18.98
2023-02-18T00:53:57.391Z,18.80
2023-02-18T00:56:25.957Z,20.30
2023-02-18T00:58:54.699Z,21.20
2023-02-18T01:01:23.225Z,24.02
2023-02-18T01:03:51.548Z,24.58
2023-02-18T01:06:19.841Z,26.25
2023-02-18T01:08:51.084Z,22.30
2023-02-18T01:11:19.435Z,19.40
2023-02-18T01:13:47.846Z,24.45
2023-02-18T01:16:17.110Z,18.95
2023-02-18T01:18:47.770Z,21.45
2023-02-18T01:21:16.762Z,25.30
2023-02-18T01:23:45.086Z,19.98
2023-02-18T01:26:18.730Z,19.80
2023-02-18T01:28:47.010Z,23.55
2023-02-18T01:31:15.942Z,22.75
2023-02-18T01:33:44.569Z,21.25
2023-02-18T01:36:13.248Z,17.10
2023-02-18T01:38:41.860Z,18.17
2023-02-18T01:41:10.220Z,17.98
2023-02-18T01:43:40.235Z,23.52
2023-02-18T01:46:19.636Z,17.80
2023-02-18T01:48:52.820Z,22.08
2023-02-18T01:51:24.880Z,19.25
2023-02-18T01:53:56.891Z,17.90
2023-02-18T01:56:29.159Z,16.10
2023-02-18T01:59:02.536Z,19.33
2023-02-18T02:01:32.388Z,21.73
2023-02-18T02:04:00.734Z,20.52
2023-02-18T02:06:29.059Z,17.30
2023-02-18T02:09:00.465Z,18.05
2023-02-18T02:11:47.358Z,17.75
2023-02-18T02:14:30.228Z,20.08
2023-02-18T02:17:04.692Z,18.67
2023-02-18T02:20:23.991Z,23.02
2023-02-18T02:23:25.196Z,20.08
2023-02-18T02:26:23.146Z,15.35
2023-02-18T02:29:26.136Z,18.15
2023-02-18T02:32:30.033Z,19.20
2023-02-18T02:35:04.190Z,20.08
2023-02-18T02:37:41.541Z,20.90
2023-02-18T02:40:21.561Z,15.27
2023-02-18T02:43:03.439Z,16.45
2023-02-18T02:45:44.262Z,18.60
2023-02-18T02:48:21.312Z,19.27
2023-02-18T02:51:00.125Z,17.77
2023-02-18T02:53:32.189Z,16.95
2023-02-18T02:56:00.646Z,17.88
2023-02-18T02:58:29.894Z,16.50
2023-02-18T03:01:26.451Z,15.02
2023-02-18T03:04:26.491Z,15.23
2023-02-18T03:07:11.637Z,22.40
2023-02-18T03:09:56.558Z,20.95
2023-02-18T03:12:31.422Z,16.15
2023-02-18T03:15:06.993Z,18.05
2023-02-18T03:17:39.753Z,18.70
2023-02-18T03:20:11.866Z,15.02
2023-02-18T03:22:46.142Z,16.73
2023-02-18T03:25:15.761Z,19.40
2023-02-18T03:27:47.251Z,17.30
2023-02-18T03:30:19.446Z,17.40
2023-02-18T03:32:50.335Z,18.02
2023-02-18T03:35:21.917Z,15.57
2023-02-18T03:37:55.712Z,16.25
2023-02-18T03:40:24.162Z,19.42
2023-02-18T03:42:52.597Z,20.08
2023-02-18T03:45:20.979Z,16.58
2023-02-18T03:47:49.727Z,21.15
2023-02-18T03:50:18.166Z,19.52
2023-02-18T03:52:46.556Z,15.55
2023-02-18T03:55:16.278Z,14.95
2023-02-18T03:57:44.568Z,17.40
2023-02-18T04:00:13.635Z,16.83
2023-02-18T04:02:42.327Z,18.77
2023-02-18T04:05:11.329Z,15.73
2023-02-18T04:07:39.801Z,21.50
2023-02-18T04:10:09.593Z,21.58
2023-02-18T04:12:39.315Z,20.10
2023-02-18T04:15:08.021Z,21.20
2023-02-18T04:17:36.354Z,14.27
2023-02-18T04:20:05.100Z,20.13
2023-02-18T04:22:33.558Z,19.88
2023-02-18T04:25:01.778Z,24.30
2023-02-18T04:27:30.117Z,20.00
2023-02-18T04:30:00.181Z,21.67
2023-02-18T04:32:28.587Z,23.90
2023-02-18T04:34:57.101Z,22.77
2023-02-18T04:37:25.394Z,27.05
2023-02-18T04:39:53.653Z,26.20
2023-02-18T04:42:22.015Z,24.10
2023-02-18T04:44:50.411Z,19.73
2023-02-18T04:47:20.142Z,23.83
2023-02-18T04:49:48.514Z,20.98
2023-02-18T04:52:16.811Z,23.35
2023-02-18T04:54:45.178Z,25.35
2023-02-18T04:57:13.591Z,25.40
2023-02-18T04:59:42.111Z,21.73
2023-02-18T05:02:10.379Z,30.13
2023-02-18T05:04:40.116Z,30.17
2023-02-18T05:07:08.446Z,34.63
2023-02-18T05:09:36.713Z,30.05
2023-02-18T05:12:05.332Z,32.55
2023-02-18T05:14:33.668Z,32.17
2023-02-18T05:17:01.937Z,30.60
2023-02-18T05:19:30.204Z,31.08
2023-02-18T05:21:59.900Z,30.38
2023-02-18T05:24:28.156Z,36.42
2023-02-18T05:26:56.542Z,38.05
2023-02-18T05:29:24.756Z,39.83
2023-02-18T05:31:53.316Z,39.60
2023-02-18T05:34:21.654Z,36.90
2023-02-18T05:36:49.974Z,36.42
2023-02-18T05:39:19.624Z,33.10
2023-02-18T05:41:47.900Z,42.28
2023-02-18T05:44:31.502Z,32.78
2023-02-18T05:47:00.158Z,39.67
2023-02-18T05:49:28.656Z,38.50
2023-02-18T05:51:57.011Z,34.95
2023-02-18T05:54:27.193Z,36.20
2023-02-18T05:56:56.200Z,41.40
2023-02-18T05:59:24.896Z,36.50
2023-02-18T06:01:53.461Z,45.17
2023-02-18T06:04:21.979Z,38.15
2023-02-18T06:06:50.281Z,47.17
2023-02-18T06:09:18.565Z,38.85
2023-02-18T06:11:48.268Z,39.50
2023-02-18T06:14:16.651Z,44.97
2023-02-18T06:16:44.927Z,45.13
2023-02-18T06:19:13.201Z,37.58
2023-02-18T06:21:41.482Z,46.85
2023-02-18T06:24:10.094Z,52.42
2023-02-18T06:26:38.446Z,56.45
2023-02-18T06:29:08.092Z,53.10
2023-02-18T06:31:36.570Z,55.50
2023-02-18T06:34:04.890Z,50.25
2023-02-18T06:36:33.137Z,56.05
2023-02-18T06:39:03.710Z,60.15
2023-02-18T06:41:32.159Z,59.17
2023-02-18T06:44:00.488Z,60.13
2023-02-18T06:46:30.244Z,72.10
2023-02-18T06:48:58.546Z,74.28
2023-02-18T06:51:27.133Z,62.50
2023-02-18T06:53:55.468Z,61.85
2023-02-18T06:56:23.775Z,56.58
2023-02-18T06:58:51.990Z,54.28
2023-02-18T07:01:20.268Z,65.25
2023-02-18T07:03:50.399Z,53.88
2023-02-18T07:06:18.988Z,54.47
2023-02-18T07:08:47.329Z,55.80
2023-02-18T07:11:15.664Z,58.35
2023-02-18T07:13:43.949Z,54.50
2023-02-18T07:16:12.639Z,49.22
2023-02-18T07:18:41.027Z,52.00
2023-02-18T07:21:10.718Z,44.28
2023-02-18T07:23:39.005Z,44.20
2023-02-18T07:26:09.446Z,50.38
2023-02-18T07:28:38.031Z,45.05
2023-02-18T07:31:06.776Z,46.53
2023-02-18T07:33:35.217Z,49.83
2023-02-18T07:36:04.125Z,40.00
2023-02-18T07:38:33.970Z,37.10
2023-02-18T07:41:02.546Z,32.75
2023-02-18T07:43:30.875Z,36.20
2023-02-18T07:45:59.169Z,39.72
2023-02-18T07:48:27.561Z,30.88
2023-02-18T07:50:55.914Z,35.10
2023-02-18T07:53:24.174Z,31.13
2023-02-18T07:55:54.160Z,28.52
2023-02-18T07:58:24.529Z,28.30
2023-02-18T08:00:54.510Z,25.52
2023-02-18T08:03:25.129Z,22.55
2023-02-18T08:05:54.605Z,20.73
2023-02-18T08:08:26.191Z,23.15
2023-02-18T08:10:58.622Z,17.13
2023-02-18T08:13:27.971Z,17.30
2023-02-18T08:15:56.616Z,15.65
2023-02-18T08:18:26.829Z,16.65
2023-02-18T08:20:55.805Z,15.93
2023-02-18T08:23:25.757Z,16.45
2023-02-18T08:25:55.871Z,17.52
2023-02-18T08:28:25.142Z,16.63
2023-02-18T08:30:55.853Z,16.27
2023-02-18T08:33:25.066Z,2.72
2023-02-18T08:35:56.619Z,1.88
2023-02-18T08:38:26.020Z,1.70
2023-02-18T08:41:05.345Z,1.08
2023-02-18T08:43:33.896Z,1.85
2023-02-18T08:46:02.213Z,1.58
2023-02-18T08:48:31.087Z,0.40
2023-02-18T08:50:59.602Z,1.65
2023-02-18T08:53:27.958Z,1.35
2023-02-18T08:55:56.226Z,0.32
2023-02-18T08:58:25.879Z,0.52
2023-02-18T09:00:54.162Z,1.23
2023-02-18T09:03:22.507Z,0.93
2023-02-18T09:05:50.756Z,4.40
2023-02-18T09:08:19.610Z,1.02
2023-02-18T09:10:47.901Z,1.55
2023-02-18T09:13:16.252Z,0.82
2023-02-18T09:15:45.982Z,0.10
2023-02-18T09:18:14.237Z,0.68
2023-02-18T09:20:42.548Z,0.38
2023-02-18T09:23:10.804Z,0.73
2023-02-18T09:25:41.068Z,0.25
2023-02-18T09:28:09.447Z,0.20
2023-02-18T09:30:37.809Z,0.00
2023-02-18T09:33:07.831Z,0.35
2023-02-18T09:35:40.602Z,0.15
2023-02-18T09:38:09.772Z,1.65
2023-02-18T09:40:41.104Z,1.15
2023-02-18T09:43:19.454Z,0.20
2023-02-18T09:45:47.772Z,0.95
2023-02-18T09:48:17.462Z,0.80
2023-02-18T09:50:51.536Z,1.65
2023-02-18T09:53:20.375Z,0.00
2023-02-18T09:55:50.137Z,0.30
2023-02-18T09:58:21.451Z,0.40
2023-02-18T10:00:52.168Z,0.00
2023-02-18T10:03:24.656Z,0.13
2023-02-18T10:06:00.517Z,0.00
2023-02-18T10:08:31.244Z,0.00
2023-02-18T10:10:59.517Z,0.20
2023-02-18T10:13:31.385Z,0.32
2023-02-18T10:15:59.891Z,0.10
2023-02-18T10:18:32.682Z,0.00
2023-02-18T10:21:09.008Z,0.28
2023-02-18T10:23:40.172Z,1.55
2023-02-18T10:26:13.959Z,0.55
2023-02-18T10:28:42.398Z,0.40
2023-02-18T10:31:12.432Z,0.10
2023-02-18T10:33:48.728Z,0.82
2023-02-18T10:36:25.370Z,0.05
2023-02-18T10:39:19.331Z,0.00
2023-02-18T10:41:56.833Z,0.20
2023-02-18T10:44:35.770Z,0.00
2023-02-18T10:47:18.181Z,1.17
2023-02-18T10:50:10.301Z,0.88
2023-02-18T10:52:42.345Z,0.63
2023-02-18T10:55:12.936Z,0.28
2023-02-18T10:57:49.035Z,9.52
2023-02-18T11:00:20.854Z,0.00
2023-02-18T11:03:02.090Z,0.10
2023-02-18T11:05:32.365Z,0.20
2023-02-18T11:08:02.718Z,2.17
2023-02-18T11:10:33.807Z,0.13
2023-02-18T11:13:03.905Z,0.32
2023-02-18T11:15:32.661Z,1.08
2023-02-18T11:18:14.389Z,0.22
2023-02-18T11:20:56.756Z,2.40
2023-02-18T11:23:25.790Z,4.80
2023-02-18T11:26:06.019Z,0.38
2023-02-18T11:28:43.715Z,0.10
2023-02-18T11:31:18.060Z,0.13
2023-02-18T11:33:51.104Z,2.45
2023-02-18T11:36:25.452Z,0.68
2023-02-18T11:38:56.460Z,0.32
2023-02-18T11:41:33.037Z,1.77
2023-02-18T11:44:02.644Z,0.55
2023-02-18T11:46:30.939Z,0.20
2023-02-18T11:49:13.190Z,0.00
2023-02-18T11:51:50.702Z,0.32
2023-02-18T11:54:27.906Z,1.95
2023-02-18T11:56:59.452Z,0.88
2023-02-18T11:59:29.399Z,1.95
2023-02-18T12:02:07.366Z,0.90
2023-02-18T12:04:42.955Z,0.60
2023-02-18T12:07:21.843Z,2.45
2023-02-18T12:09:54.895Z,4.30
2023-02-18T12:12:28.760Z,0.13
2023-02-18T12:14:58.039Z,0.30
2023-02-18T12:17:41.068Z,1.95
2023-02-18T12:20:42.339Z,0.32
2023-02-18T12:23:23.242Z,0.00
2023-02-18T12:25:59.829Z,1.08
2023-02-18T12:28:49.812Z,0.17
2023-02-18T12:31:52.893Z,0.30
2023-02-18T12:34:33.903Z,0.75
2023-02-18T12:37:13.244Z,0.77
2023-02-18T12:40:06.205Z,0.57
2023-02-18T12:42:48.794Z,0.25
2023-02-18T12:45:39.562Z,0.25
2023-02-18T12:48:30.261Z,1.27
2023-02-18T12:51:29.414Z,3.40
2023-02-18T12:54:16.477Z,0.00
2023-02-18T12:57:08.561Z,0.30
2023-02-18T13:00:09.244Z,0.85
2023-02-18T13:03:09.625Z,3.42
2023-02-18T13:05:42.904Z,0.10
2023-02-18T13:08:32.546Z,3.05
2023-02-18T13:11:17.291Z,5.28
2023-02-18T13:13:55.031Z,2.53
2023-02-18T13:16:24.688Z,0.20
2023-02-18T13:19:02.872Z,1.10
2023-02-18T13:21:33.175Z,0.30
2023-02-18T13:24:06.787Z,3.60
2023-02-18T13:26:36.319Z,0.68
2023-02-18T13:29:23.782Z,1.63
2023-02-18T13:32:10.823Z,0.20
2023-02-18T13:34:48.188Z,0.30
2023-02-18T13:37:24.315Z,0.32
2023-02-18T13:39:56.209Z,0.57
2023-02-18T13:42:36.714Z,1.08
2023-02-18T13:45:25.791Z,9.02
2023-02-18T13:47:55.192Z,0.00
2023-02-18T13:50:44.092Z,0.45
2023-02-18T13:53:25.509Z,0.22
2023-02-18T13:56:01.472Z,0.00
2023-02-18T13:58:36.881Z,0.32
2023-02-18T14:01:14.566Z,1.73
2023-02-18T14:03:58.456Z,0.40
2023-02-18T14:06:28.630Z,0.38
2023-02-18T14:09:36.869Z,0.13
2023-02-18T14:12:25.739Z,0.17
2023-02-18T14:14:54.857Z,1.65
2023-02-18T14:17:37.087Z,0.10
2023-02-18T14:20:38.821Z,1.17
2023-02-18T14:23:34.331Z,1.00
2023-02-18T14:26:08.545Z,0.22
2023-02-18T14:28:41.824Z,0.98
2023-02-18T14:31:30.638Z,0.28
2023-02-18T14:34:43.010Z,2.42
2023-02-18T14:37:47.773Z,1.13
2023-02-18T14:40:26.661Z,10.68
2023-02-18T14:43:03.613Z,0.20
2023-02-18T14:45:48.562Z,0.25
2023-02-18T14:48:37.187Z,8.65
2023-02-18T14:51:07.883Z,1.25
2023-02-18T14:53:42.075Z,0.20
2023-02-18T14:56:13.320Z,4.90
2023-02-18T14:58:45.161Z,2.85
2023-02-18T15:01:20.555Z,0.13
2023-02-18T15:03:50.725Z,2.53
2023-02-18T15:06:32.658Z,0.00
2023-02-18T15:09:01.617Z,0.00
2023-02-18T15:11:38.233Z,0.32
2023-02-18T15:14:13.217Z,0.57
2023-02-18T15:16:42.003Z,0.30
2023-02-18T15:19:18.179Z,26.25
2023-02-18T15:21:50.039Z,1.00
2023-02-18T15:24:27.002Z,0.32
2023-02-18T15:26:57.548Z,0.52
2023-02-18T15:29:27.891Z,0.55
2023-02-18T15:31:58.844Z,0.70
2023-02-18T15:34:37.344Z,0.15
2023-02-18T15:37:08.730Z,0.60
2023-02-18T15:39:39.612Z,0.40
2023-02-18T15:42:10.832Z,16.02
2023-02-18T15:44:39.519Z,18.77
2023-02-18T15:47:10.196Z,20.15
2023-02-18T15:49:40.290Z,16.92
2023-02-18T15:52:10.180Z,18.80
2023-02-18T15:54:42.152Z,18.17
2023-02-18T15:57:15.088Z,23.45
2023-02-18T15:59:48.189Z,25.15
2023-02-18T16:02:20.121Z,22.70
2023-02-18T16:04:53.778Z,24.60
2023-02-18T16:07:26.294Z,26.27
2023-02-18T16:10:10.665Z,24.42
2023-02-18T16:12:40.591Z,21.95
2023-02-18T16:15:17.026Z,20.67
2023-02-18T16:17:46.900Z,24.23
2023-02-18T16:20:26.363Z,27.98
2023-02-18T16:22:56.790Z,24.83
2023-02-18T16:25:27.849Z,30.10
2023-02-18T16:28:06.295Z,24.27
2023-02-18T16:30:36.330Z,25.13
2023-02-18T16:33:05.042Z,19.35
2023-02-18T16:35:48.727Z,23.20
2023-02-18T16:38:21.485Z,19.85
2023-02-18T16:40:50.345Z,14.68
2023-02-18T16:43:20.469Z,20.15
2023-02-18T16:45:51.627Z,19.90
2023-02-18T16:48:25.216Z,18.20
2023-02-18T16:50:54.375Z,27.10
2023-02-18T16:53:24.318Z,24.02
2023-02-18T16:55:52.812Z,26.73
2023-02-18T16:58:21.119Z,34.60
2023-02-18T17:00:52.181Z,21.48
2023-02-18T17:03:21.395Z,18.40
2023-02-18T17:05:49.884Z,20.85
2023-02-18T17:08:23.366Z,19.45
2023-02-18T17:10:56.821Z,23.27
2023-02-18T17:13:27.081Z,29.83
2023-02-18T17:15:56.846Z,23.80
2023-02-18T17:18:25.908Z,26.10
2023-02-18T17:20:57.165Z,23.60
2023-02-18T17:23:26.031Z,26.83
2023-02-18T17:25:55.678Z,18.88
2023-02-18T17:28:24.061Z,26.83
2023-02-18T17:30:57.612Z,19.38
2023-02-18T17:33:26.389Z,21.88
2023-02-18T17:35:54.841Z,22.00
2023-02-18T17:38:23.671Z,18.38
2023-02-18T17:40:52.047Z,18.80
2023-02-18T17:43:23.858Z,12.52
2023-02-18T17:45:53.307Z,15.30
2023-02-18T17:48:22.269Z,18.38
2023-02-18T17:50:50.511Z,19.85
2023-02-18T17:53:19.517Z,22.08
2023-02-18T17:55:48.556Z,18.85
2023-02-18T17:58:17.473Z,18.23
2023-02-18T18:00:48.630Z,21.83
2023-02-18T18:03:17.251Z,16.35
2023-02-18T18:05:49.060Z,15.80
2023-02-18T18:08:17.323Z,15.45
2023-02-18T18:10:50.278Z,25.83
2023-02-18T18:13:25.172Z,20.88
2023-02-18T18:15:59.213Z,22.42
2023-02-18T18:18:28.492Z,27.08
2023-02-18T18:20:59.563Z,25.55
2023-02-18T18:23:28.664Z,30.67
2023-02-18T18:25:59.993Z,28.80
2023-02-18T18:28:29.136Z,40.47
2023-02-18T18:31:06.408Z,34.95
2023-02-18T18:33:41.113Z,26.15
2023-02-18T18:36:12.097Z,19.98
2023-02-18T18:38:40.325Z,17.27
2023-02-18T18:41:14.258Z,14.55
2023-02-18T18:43:42.325Z,11.15
2023-02-18T18:46:14.414Z,14.70
2023-02-18T18:48:42.566Z,16.25
2023-02-18T18:51:15.962Z,19.30
2023-02-18T18:53:44.481Z,14.45
2023-02-18T18:56:13.974Z,16.85
2023-02-18T18:58:42.147Z,15.43
2023-02-18T19:01:18.108Z,19.73
2023-02-18T19:03:46.495Z,13.57
2023-02-18T19:06:15.899Z,10.38
2023-02-18T19:08:45.249Z,14.73
2023-02-18T19:11:14.512Z,20.70
2023-02-18T19:13:43.045Z,17.08
2023-02-18T19:16:18.247Z,25.50
2023-02-18T19:18:46.893Z,16.27
2023-02-18T19:21:18.160Z,20.40
2023-02-18T19:23:49.494Z,23.75
2023-02-18T19:26:17.860Z,24.80
2023-02-18T19:28:49.321Z,19.48
2023-02-18T19:31:24.173Z,21.95
2023-02-18T19:33:53.757Z,19.35
2023-02-18T19:36:22.115Z,24.48
2023-02-18T19:38:52.813Z,16.33
2023-02-18T19:41:21.196Z,22.30
2023-02-18T19:43:49.344Z,16.27
2023-02-18T19:46:23.979Z,17.55
2023-02-18T19:48:56.141Z,21.10
2023-02-18T19:51:24.912Z,17.50
2023-02-18T19:53:55.687Z,19.92
2023-02-18T19:56:26.897Z,15.00
2023-02-18T19:58:56.732Z,21.38
2023-02-18T20:01:26.416Z,19.73
2023-02-18T20:03:54.593Z,19.83
2023-02-18T20:06:22.961Z,22.65
2023-02-18T20:08:51.515Z,21.13
2023-02-18T20:11:20.266Z,20.77
2023-02-18T20:13:49.156Z,20.45
2023-02-18T20:16:17.317Z,23.35
2023-02-18T20:18:49.632Z,22.23
2023-02-18T20:21:17.836Z,16.08
2023-02-18T20:23:45.926Z,17.52
2023-02-18T20:26:15.074Z,26.75
2023-02-18T20:28:44.414Z,24.05
2023-02-18T20:31:14.632Z,25.90
2023-02-18T20:33:45.029Z,22.48
2023-02-18T20:36:15.435Z,25.50
2023-02-18T20:38:43.914Z,19.10
2023-02-18T20:41:18.296Z,25.75
2023-02-18T20:43:46.912Z,24.17
2023-02-18T20:46:17.706Z,21.52
2023-02-18T20:48:46.182Z,22.92
2023-02-18T20:51:17.299Z,17.17
2023-02-18T20:53:48.484Z,19.80
2023-02-18T20:56:19.211Z,30.63
2023-02-18T20:58:58.154Z,21.70
2023-02-18T21:01:26.676Z,19.15
2023-02-18T21:03:55.658Z,26.10
2023-02-18T21:06:26.179Z,24.35
2023-02-18T21:08:55.247Z,24.85
2023-02-18T21:11:27.819Z,22.50
2023-02-18T21:13:57.320Z,30.05
2023-02-18T21:16:26.892Z,25.48
2023-02-18T21:18:57.056Z,21.58
2023-02-18T21:21:27.135Z,32.17
2023-02-18T21:23:55.325Z,23.63
2023-02-18T21:26:25.661Z,33.58
2023-02-18T21:28:55.248Z,26.13
2023-02-18T21:31:25.675Z,30.33
2023-02-18T21:33:54.197Z,28.17
2023-02-18T21:36:23.141Z,26.08
2023-02-18T21:38:58.666Z,31.77
2023-02-18T21:41:32.678Z,33.30
2023-02-18T21:44:05.084Z,32.33
2023-02-18T21:46:37.671Z,24.85
2023-02-18T21:49:07.037Z,37.53
2023-02-18T21:51:55.394Z,29.65
2023-02-18T21:54:28.962Z,32.95
2023-02-18T21:56:58.153Z,24.25
2023-02-18T21:59:30.480Z,27.13
2023-02-18T22:02:04.194Z,36.33
2023-02-18T22:04:37.561Z,34.60
2023-02-18T22:07:08.500Z,36.08
2023-02-18T22:09:41.170Z,27.40
2023-02-18T22:12:13.966Z,31.75
2023-02-18T22:14:43.165Z,35.47
2023-02-18T22:17:11.544Z,33.97
2023-02-18T22:19:40.114Z,28.38
2023-02-18T22:22:08.503Z,36.92
2023-02-18T22:24:37.022Z,28.65
2023-02-18T22:27:06.599Z,26.27
2023-02-18T22:29:34.816Z,30.23
2023-02-18T22:32:03.188Z,25.40
2023-02-18T22:34:33.397Z,34.78
2023-02-18T22:37:01.621Z,25.70
2023-02-18T22:39:29.876Z,28.77
2023-02-18T22:42:01.882Z,34.45
2023-02-18T22:44:39.609Z,33.97
2023-02-18T22:47:17.062Z,33.08
2023-02-18T22:50:05.692Z,29.70
2023-02-18T22:52:49.888Z,38.33
2023-02-18T22:55:33.500Z,34.25
2023-02-18T22:58:08.302Z,31.33
2023-02-18T23:00:50.369Z,38.30
2023-02-18T23:03:23.863Z,35.20
2023-02-18T23:06:06.163Z,32.50
2023-02-18T23:08:45.119Z,34.58
2023-02-18T23:11:22.072Z,33.80
2023-02-18T23:14:09.950Z,36.05
2023-02-18T23:17:01.281Z,44.05
2023-02-18T23:19:35.179Z,31.63
2023-02-18T23:22:12.966Z,38.20
2023-02-18T23:24:52.232Z,34.97
2023-02-18T23:27:54.643Z,36.30
2023-02-18T23:31:00.496Z,31.63
2023-02-18T23:33:36.164Z,28.92
2023-02-18T23:36:26.274Z,29.40
2023-02-18T23:39:07.417Z,36.72
2023-02-18T23:41:39.223Z,32.22
2023-02-18T23:44:11.030Z,31.42
2023-02-18T23:46:40.662Z,29.83
2023-02-18T23:49:10.158Z,38.20
2023-02-18T23:51:38.293Z,44.05
2023-02-18T23:54:06.986Z,28.17
2023-02-18T23:56:35.138Z,27.00
2023-02-18T23:59:07.057Z,30.70
